• Join FlightAware (Why Join?)
  • Login
  • US Flag 
07:09PM EST


 

Airport Tracker/Info


-or-


 

Live Flight TrackerFlight Track Log ✈ PDT4226 ✈ 26-Oct-2013 ✈ KBGM - KPHL

Flight Track Log - Related Links

Times and Time Zones

All times are in EDT time to prevent confusion due to time zone crossing. See the PDT4226 flight status page for this flight to view local times or setup timezone preferences in your user account.

Time Position Orientation Groundspeed Altitude Reporting Facility
EDT Latitude Longitude Course Direction KTS MPH feet Rate Location/Type
02:27PM 41.6007 -75.7822 162° South  Level Estimated
02:28PM 41.3994 -75.7095 165° South  Level FlightAware Approximate
02:29PM 41.1966 -75.6460 163° South  Level Estimated
02:30PM 40.9936 -75.5828 190° South  Level Estimated
02:31PM 40.7907 -75.5201 187° South  Level Estimated
02:32PM 40.5877 -75.4577 190° South  Level Estimated
02:33PM 40.3847 -75.3957 143° Southeast  Level Estimated
02:34PM 40.1816 -75.3340 150° Southeast  Level Estimated
02:35PM 39.9785 -75.2728 150° Southeast  Level Estimated
02:36PM 39.8667 -75.2333 150° Southeast  Level FlightAware Approximate
02:37PM 39.8722 -75.2409 150° Southeast  Level Estimated
02:38PM 39.8722 -75.2409 150° Southeast  Level Estimated
02:39PM 39.8722 -75.2409 150° Southeast  Level Estimated
02:40PM 39.8722 -75.2409 150° Southeast  Level Estimated
02:41PM 39.8722 -75.2409 150° Southeast  Level Estimated
02:42PM 39.8722 -75.2409 150° Southeast  Level Estimated
02:43PM 39.8722 -75.2409 150° Southeast  Level Estimated
02:44PM 39.8722 -75.2409 150° Southeast  Level Estimated
02:45PM 39.8722 -75.2409 150° Southeast  Level Estimated
02:46PM 39.8722 -75.2409 150° Southeast  Level Estimated
02:47PM 39.8722 -75.2409 150° Southeast  Level Estimated
02:48PM 39.8722 -75.2409 150° Southeast  Level Estimated
02:49PM 39.8722 -75.2409 150° Southeast  Level Estimated
02:50PM 39.8722 -75.2409 150° Southeast  Level Estimated
02:50PM 40.7833 -75.5667 150° Southeast 214 246 7,900  Level Philadelphia TRACON
02:51PM 39.8722 -75.2409 150° Southeast  Level Estimated
02:51PM 40.7167 -75.5667 180° South 249 287 7,000  Level Philadelphia TRACON
02:52PM 39.8722 -75.2409 150° Southeast  Level Estimated
02:52PM 40.6500 -75.5667 180° South 226 260 7,000  Level Philadelphia TRACON
02:53PM 40.5833 -75.5667 180° South 219 252 7,000 -60 Level Philadelphia TRACON
02:54PM 40.5167 -75.5667 180° South 219 252 6,900 -60 Descending Philadelphia TRACON
02:55PM 40.4667 -75.5667 180° South 218 251 6,900  Level Philadelphia TRACON
02:56PM 40.4167 -75.5167 143° Southeast 244 281 7,000 -60 Climbing Philadelphia TRACON
02:57PM 40.3667 -75.4667 143° Southeast 235 270 6,800 -600 Descending Philadelphia TRACON
02:58PM 40.3000 -75.4167 150° Southeast 256 295 5,900 -480 Descending Philadelphia TRACON
02:59PM 40.2500 -75.3500 134° Southeast 244 281 5,900  Level Philadelphia TRACON
03:00PM 40.2000 -75.3000 143° Southeast 234 269 5,900  Level Philadelphia TRACON
03:01PM 40.1500 -75.2500 143° Southeast 224 258 5,900  Level Philadelphia TRACON
03:02PM 40.1000 -75.2000 143° Southeast 222 255 5,900  Level Philadelphia TRACON
03:03PM 40.0833 -75.1333 108° East 231 266 5,900  Level Philadelphia TRACON
03:04PM 40.0667 -75.0667 108° East 207 238 5,900 -540 Level Philadelphia TRACON
03:05PM 40.0333 -75.0000 123° Southeast 201 231 4,900 -1,200 Descending Philadelphia TRACON
03:06PM 39.9833 -75.0000 180° South 169 194 3,600 -1,320 Descending Philadelphia TRACON
03:07PM 39.9333 -75.0167 194° South 172 198 2,100 -780 Descending Philadelphia TRACON
03:08PM 39.9167 -75.0667 247° West 154 177 2,000 -300 Descending Philadelphia TRACON
03:09PM 39.9000 -75.1333 252° West 160 184 1,500 -600 Descending Philadelphia TRACON
03:10PM 39.9000 -75.1667 270° West 107 123 900 -720 Descending Philadelphia TRACON
03:11PM 39.8833 -75.2000 237° Southwest 109 125 200 -720 Descending Philadelphia TRACON